sensor_id;sensor_type;location;lat;lon;timestamp;P1;durP1;ratioP1;P2;durP2;ratioP2
27921;SDS011;15261;50.356;10.340;2022-11-15T00:00:45;6.45;;;4.65;;
27921;SDS011;15261;50.356;10.340;2022-11-15T00:03:13;4.65;;;4.00;;
27921;SDS011;15261;50.356;10.340;2022-11-15T00:05:39;4.50;;;4.10;;
27921;SDS011;15261;50.356;10.340;2022-11-15T00:08:05;4.55;;;4.15;;
27921;SDS011;15261;50.356;10.340;2022-11-15T00:10:30;5.18;;;4.20;;
27921;SDS011;15261;50.356;10.340;2022-11-15T00:12:56;6.30;;;4.43;;
27921;SDS011;15261;50.356;10.340;2022-11-15T00:15:21;6.93;;;4.40;;
27921;SDS011;15261;50.356;10.340;2022-11-15T00:17:50;4.50;;;3.95;;
27921;SDS011;15261;50.356;10.340;2022-11-15T00:20:16;4.80;;;4.30;;
27921;SDS011;15261;50.356;10.340;2022-11-15T00:22:42;5.47;;;4.57;;
27921;SDS011;15261;50.356;10.340;2022-11-15T00:25:08;6.15;;;5.10;;
27921;SDS011;15261;50.356;10.340;2022-11-15T00:27:34;4.93;;;4.30;;
27921;SDS011;15261;50.356;10.340;2022-11-15T00:29:59;7.45;;;4.90;;
27921;SDS011;15261;50.356;10.340;2022-11-15T00:32:25;5.50;;;4.97;;
27921;SDS011;15261;50.356;10.340;2022-11-15T00:34:51;4.97;;;4.47;;
27921;SDS011;15261;50.356;10.340;2022-11-15T00:37:16;5.30;;;4.80;;
27921;SDS011;15261;50.356;10.340;2022-11-15T00:39:42;5.43;;;5.00;;
27921;SDS011;15261;50.356;10.340;2022-11-15T00:42:07;5.60;;;5.07;;
27921;SDS011;15261;50.356;10.340;2022-11-15T00:44:33;5.47;;;4.95;;
27921;SDS011;15261;50.356;10.340;2022-11-15T00:46:58;5.55;;;4.72;;
27921;SDS011;15261;50.356;10.340;2022-11-15T00:49:24;5.70;;;5.10;;
27921;SDS011;15261;50.356;10.340;2022-11-15T00:51:49;5.13;;;4.63;;
27921;SDS011;15261;50.356;10.340;2022-11-15T00:54:15;5.75;;;5.13;;
27921;SDS011;15261;50.356;10.340;2022-11-15T00:56:40;5.38;;;4.85;;
27921;SDS011;15261;50.356;10.340;2022-11-15T00:59:06;6.13;;;5.53;;
27921;SDS011;15261;50.356;10.340;2022-11-15T01:01:32;6.40;;;4.95;;
27921;SDS011;15261;50.356;10.340;2022-11-15T01:03:57;5.78;;;5.13;;
27921;SDS011;15261;50.356;10.340;2022-11-15T01:06:23;6.45;;;5.80;;
27921;SDS011;15261;50.356;10.340;2022-11-15T01:08:48;7.60;;;5.20;;
27921;SDS011;15261;50.356;10.340;2022-11-15T01:11:14;6.60;;;5.35;;
27921;SDS011;15261;50.356;10.340;2022-11-15T01:13:39;6.25;;;5.40;;
27921;SDS011;15261;50.356;10.340;2022-11-15T01:16:09;6.28;;;5.60;;
27921;SDS011;15261;50.356;10.340;2022-11-15T01:18:37;6.97;;;5.68;;
27921;SDS011;15261;50.356;10.340;2022-11-15T01:21:10;6.22;;;5.60;;
27921;SDS011;15261;50.356;10.340;2022-11-15T01:23:37;7.90;;;6.10;;
27921;SDS011;15261;50.356;10.340;2022-11-15T01:26:05;8.25;;;7.35;;
27921;SDS011;15261;50.356;10.340;2022-11-15T01:28:32;15.70;;;11.32;;
27921;SDS011;15261;50.356;10.340;2022-11-15T01:31:00;19.25;;;13.60;;
27921;SDS011;15261;50.356;10.340;2022-11-15T01:33:27;12.32;;;9.38;;
27921;SDS011;15261;50.356;10.340;2022-11-15T01:35:53;9.73;;;8.13;;
27921;SDS011;15261;50.356;10.340;2022-11-15T01:38:19;10.02;;;7.05;;
27921;SDS011;15261;50.356;10.340;2022-11-15T01:40:45;8.13;;;7.32;;
27921;SDS011;15261;50.356;10.340;2022-11-15T01:43:24;9.52;;;8.18;;
27921;SDS011;15261;50.356;10.340;2022-11-15T01:45:52;11.77;;;7.65;;
27921;SDS011;15261;50.356;10.340;2022-11-15T01:48:36;8.52;;;7.63;;
27921;SDS011;15261;50.356;10.340;2022-11-15T01:51:04;7.75;;;6.93;;
27921;SDS011;15261;50.356;10.340;2022-11-15T01:53:34;6.63;;;5.95;;
27921;SDS011;15261;50.356;10.340;2022-11-15T01:56:04;7.20;;;5.97;;
27921;SDS011;15261;50.356;10.340;2022-11-15T01:58:36;6.80;;;6.10;;
27921;SDS011;15261;50.356;10.340;2022-11-15T02:01:03;7.10;;;5.88;;
27921;SDS011;15261;50.356;10.340;2022-11-15T02:03:32;9.88;;;6.35;;
27921;SDS011;15261;50.356;10.340;2022-11-15T02:06:11;10.77;;;6.90;;
27921;SDS011;15261;50.356;10.340;2022-11-15T02:08:37;8.43;;;6.93;;
27921;SDS011;15261;50.356;10.340;2022-11-15T02:11:04;7.20;;;6.53;;
27921;SDS011;15261;50.356;10.340;2022-11-15T02:13:33;8.15;;;6.63;;
27921;SDS011;15261;50.356;10.340;2022-11-15T02:19:02;7.55;;;6.10;;
27921;SDS011;15261;50.356;10.340;2022-11-15T02:21:51;7.00;;;6.40;;
27921;SDS011;15261;50.356;10.340;2022-11-15T02:33:03;6.88;;;6.18;;
27921;SDS011;15261;50.356;10.340;2022-11-15T02:35:44;7.57;;;6.13;;
27921;SDS011;15261;50.356;10.340;2022-11-15T02:41:01;7.35;;;6.65;;
27921;SDS011;15261;50.356;10.340;2022-11-15T02:43:43;7.75;;;6.88;;
27921;SDS011;15261;50.356;10.340;2022-11-15T02:46:45;7.10;;;6.45;;
27921;SDS011;15261;50.356;10.340;2022-11-15T02:49:34;7.95;;;6.38;;
27921;SDS011;15261;50.356;10.340;2022-11-15T02:52:00;8.10;;;6.53;;
27921;SDS011;15261;50.356;10.340;2022-11-15T02:54:28;8.43;;;7.35;;
27921;SDS011;15261;50.356;10.340;2022-11-15T02:57:05;8.70;;;6.63;;
27921;SDS011;15261;50.356;10.340;2022-11-15T03:08:37;9.23;;;7.18;;
27921;SDS011;15261;50.356;10.340;2022-11-15T03:11:24;9.23;;;7.30;;
27921;SDS011;15261;50.356;10.340;2022-11-15T03:19:34;8.15;;;6.90;;
27921;SDS011;15261;50.356;10.340;2022-11-15T03:22:08;8.57;;;6.82;;
27921;SDS011;15261;50.356;10.340;2022-11-15T03:24:37;7.72;;;6.88;;
27921;SDS011;15261;50.356;10.340;2022-11-15T03:27:05;7.55;;;6.70;;
27921;SDS011;15261;50.356;10.340;2022-11-15T03:29:33;7.72;;;6.28;;
27921;SDS011;15261;50.356;10.340;2022-11-15T03:32:09;7.60;;;6.80;;
27921;SDS011;15261;50.356;10.340;2022-11-15T03:34:46;7.93;;;7.03;;
27921;SDS011;15261;50.356;10.340;2022-11-15T03:37:16;8.35;;;6.47;;
27921;SDS011;15261;50.356;10.340;2022-11-15T03:39:45;8.45;;;7.25;;
27921;SDS011;15261;50.356;10.340;2022-11-15T03:48:10;7.32;;;6.60;;
27921;SDS011;15261;50.356;10.340;2022-11-15T03:50:42;10.10;;;7.10;;
27921;SDS011;15261;50.356;10.340;2022-11-15T03:53:09;8.77;;;7.30;;
27921;SDS011;15261;50.356;10.340;2022-11-15T03:58:57;9.90;;;7.72;;
27921;SDS011;15261;50.356;10.340;2022-11-15T04:01:23;9.50;;;7.72;;
27921;SDS011;15261;50.356;10.340;2022-11-15T04:03:48;8.98;;;7.10;;
27921;SDS011;15261;50.356;10.340;2022-11-15T04:06:14;8.53;;;7.63;;
27921;SDS011;15261;50.356;10.340;2022-11-15T04:08:40;8.83;;;7.90;;
27921;SDS011;15261;50.356;10.340;2022-11-15T04:11:05;8.25;;;7.45;;
27921;SDS011;15261;50.356;10.340;2022-11-15T04:13:31;8.40;;;7.57;;
27921;SDS011;15261;50.356;10.340;2022-11-15T04:15:56;8.40;;;7.03;;
27921;SDS011;15261;50.356;10.340;2022-11-15T04:18:22;11.13;;;7.80;;
27921;SDS011;15261;50.356;10.340;2022-11-15T04:20:49;10.40;;;7.00;;
27921;SDS011;15261;50.356;10.340;2022-11-15T04:23:33;8.83;;;7.73;;
27921;SDS011;15261;50.356;10.340;2022-11-15T04:26:18;9.40;;;8.13;;
27921;SDS011;15261;50.356;10.340;2022-11-15T04:28:46;9.13;;;8.13;;
27921;SDS011;15261;50.356;10.340;2022-11-15T04:31:30;11.20;;;9.93;;
27921;SDS011;15261;50.356;10.340;2022-11-15T04:33:55;10.17;;;9.13;;
27921;SDS011;15261;50.356;10.340;2022-11-15T04:36:21;10.63;;;9.53;;
27921;SDS011;15261;50.356;10.340;2022-11-15T04:39:05;12.57;;;9.00;;
27921;SDS011;15261;50.356;10.340;2022-11-15T04:41:31;10.10;;;9.10;;
27921;SDS011;15261;50.356;10.340;2022-11-15T04:43:57;11.17;;;9.07;;
27921;SDS011;15261;50.356;10.340;2022-11-15T04:46:22;12.20;;;9.17;;
27921;SDS011;15261;50.356;10.340;2022-11-15T04:48:49;10.77;;;9.00;;
27921;SDS011;15261;50.356;10.340;2022-11-15T04:51:15;12.33;;;9.80;;
27921;SDS011;15261;50.356;10.340;2022-11-15T04:53:41;10.87;;;9.60;;
27921;SDS011;15261;50.356;10.340;2022-11-15T04:56:06;11.27;;;9.73;;
27921;SDS011;15261;50.356;10.340;2022-11-15T04:58:33;10.87;;;9.07;;
27921;SDS011;15261;50.356;10.340;2022-11-15T05:01:01;10.07;;;9.03;;
27921;SDS011;15261;50.356;10.340;2022-11-15T05:03:35;12.60;;;9.27;;
27921;SDS011;15261;50.356;10.340;2022-11-15T05:06:19;10.07;;;9.07;;
27921;SDS011;15261;50.356;10.340;2022-11-15T05:08:45;10.97;;;8.60;;
27921;SDS011;15261;50.356;10.340;2022-11-15T05:14:31;11.93;;;8.47;;
27921;SDS011;15261;50.356;10.340;2022-11-15T05:16:56;9.40;;;7.97;;
27921;SDS011;15261;50.356;10.340;2022-11-15T05:19:22;9.00;;;8.13;;
27921;SDS011;15261;50.356;10.340;2022-11-15T05:21:48;9.20;;;7.73;;
27921;SDS011;15261;50.356;10.340;2022-11-15T05:24:13;9.80;;;8.23;;
27921;SDS011;15261;50.356;10.340;2022-11-15T05:26:39;10.30;;;8.80;;
27921;SDS011;15261;50.356;10.340;2022-11-15T05:29:05;9.40;;;8.47;;
27921;SDS011;15261;50.356;10.340;2022-11-15T05:31:30;9.10;;;8.20;;
27921;SDS011;15261;50.356;10.340;2022-11-15T05:33:56;22.50;;;18.10;;
27921;SDS011;15261;50.356;10.340;2022-11-15T05:36:41;11.13;;;9.40;;
27921;SDS011;15261;50.356;10.340;2022-11-15T05:39:09;10.93;;;7.37;;
27921;SDS011;15261;50.356;10.340;2022-11-15T05:41:44;8.00;;;6.97;;
27921;SDS011;15261;50.356;10.340;2022-11-15T05:44:19;9.83;;;8.00;;
27921;SDS011;15261;50.356;10.340;2022-11-15T05:46:47;11.03;;;7.60;;
27921;SDS011;15261;50.356;10.340;2022-11-15T05:49:15;9.93;;;7.80;;
27921;SDS011;15261;50.356;10.340;2022-11-15T05:51:43;10.60;;;8.47;;
27921;SDS011;15261;50.356;10.340;2022-11-15T05:54:12;10.40;;;8.77;;
27921;SDS011;15261;50.356;10.340;2022-11-15T05:56:38;11.10;;;8.87;;
27921;SDS011;15261;50.356;10.340;2022-11-15T05:59:04;10.37;;;9.37;;
27921;SDS011;15261;50.356;10.340;2022-11-15T06:01:31;33.47;;;29.50;;
27921;SDS011;15261;50.356;10.340;2022-11-15T06:03:56;20.10;;;16.80;;
27921;SDS011;15261;50.356;10.340;2022-11-15T06:06:22;11.00;;;9.80;;
27921;SDS011;15261;50.356;10.340;2022-11-15T06:08:47;10.40;;;9.33;;
27921;SDS011;15261;50.356;10.340;2022-11-15T06:11:13;13.20;;;11.30;;
27921;SDS011;15261;50.356;10.340;2022-11-15T06:13:39;12.93;;;8.73;;
27921;SDS011;15261;50.356;10.340;2022-11-15T06:16:04;13.77;;;12.13;;
27921;SDS011;15261;50.356;10.340;2022-11-15T06:18:34;13.97;;;12.67;;
27921;SDS011;15261;50.356;10.340;2022-11-15T06:21:00;13.93;;;11.90;;
27921;SDS011;15261;50.356;10.340;2022-11-15T06:23:26;13.00;;;11.80;;
27921;SDS011;15261;50.356;10.340;2022-11-15T06:25:52;13.60;;;10.50;;
27921;SDS011;15261;50.356;10.340;2022-11-15T06:28:18;12.83;;;9.93;;
27921;SDS011;15261;50.356;10.340;2022-11-15T06:30:45;11.40;;;10.30;;
27921;SDS011;15261;50.356;10.340;2022-11-15T06:33:11;12.60;;;10.07;;
27921;SDS011;15261;50.356;10.340;2022-11-15T06:35:36;12.07;;;10.50;;
27921;SDS011;15261;50.356;10.340;2022-11-15T06:38:03;9.87;;;8.87;;
27921;SDS011;15261;50.356;10.340;2022-11-15T06:40:30;8.67;;;7.63;;
27921;SDS011;15261;50.356;10.340;2022-11-15T06:42:58;24.90;;;9.37;;
27921;SDS011;15261;50.356;10.340;2022-11-15T06:48:06;8.67;;;7.57;;
27921;SDS011;15261;50.356;10.340;2022-11-15T06:50:31;9.27;;;8.47;;
27921;SDS011;15261;50.356;10.340;2022-11-15T06:53:00;10.23;;;9.20;;
27921;SDS011;15261;50.356;10.340;2022-11-15T06:55:27;13.93;;;11.30;;
27921;SDS011;15261;50.356;10.340;2022-11-15T06:57:52;13.27;;;11.27;;
27921;SDS011;15261;50.356;10.340;2022-11-15T07:00:19;14.60;;;11.10;;
27921;SDS011;15261;50.356;10.340;2022-11-15T07:02:46;14.57;;;9.80;;
27921;SDS011;15261;50.356;10.340;2022-11-15T07:05:12;13.93;;;9.50;;
27921;SDS011;15261;50.356;10.340;2022-11-15T07:07:38;15.63;;;9.43;;
27921;SDS011;15261;50.356;10.340;2022-11-15T07:10:04;44.30;;;20.43;;
27921;SDS011;15261;50.356;10.340;2022-11-15T07:12:31;22.23;;;15.67;;
27921;SDS011;15261;50.356;10.340;2022-11-15T07:14:56;16.80;;;12.73;;
27921;SDS011;15261;50.356;10.340;2022-11-15T07:17:22;17.57;;;14.60;;
27921;SDS011;15261;50.356;10.340;2022-11-15T07:19:47;14.53;;;12.80;;
27921;SDS011;15261;50.356;10.340;2022-11-15T07:22:13;15.17;;;12.33;;
27921;SDS011;15261;50.356;10.340;2022-11-15T07:24:39;12.60;;;11.30;;
27921;SDS011;15261;50.356;10.340;2022-11-15T07:27:04;12.53;;;11.23;;
27921;SDS011;15261;50.356;10.340;2022-11-15T07:29:30;38.53;;;12.90;;
27921;SDS011;15261;50.356;10.340;2022-11-15T07:31:55;20.83;;;11.90;;
27921;SDS011;15261;50.356;10.340;2022-11-15T07:34:21;48.20;;;16.53;;
27921;SDS011;15261;50.356;10.340;2022-11-15T07:36:47;86.40;;;40.73;;
27921;SDS011;15261;50.356;10.340;2022-11-15T07:39:12;42.67;;;16.77;;
27921;SDS011;15261;50.356;10.340;2022-11-15T07:41:39;44.00;;;17.77;;
27921;SDS011;15261;50.356;10.340;2022-11-15T07:44:04;52.30;;;29.17;;
27921;SDS011;15261;50.356;10.340;2022-11-15T07:46:30;43.10;;;25.40;;
27921;SDS011;15261;50.356;10.340;2022-11-15T07:48:56;71.17;;;49.30;;
27921;SDS011;15261;50.356;10.340;2022-11-15T07:51:22;56.30;;;42.30;;
27921;SDS011;15261;50.356;10.340;2022-11-15T07:53:48;40.57;;;29.20;;
27921;SDS011;15261;50.356;10.340;2022-11-15T07:56:14;30.27;;;22.47;;
27921;SDS011;15261;50.356;10.340;2022-11-15T07:58:39;30.83;;;21.57;;
27921;SDS011;15261;50.356;10.340;2022-11-15T08:01:05;19.00;;;14.20;;
27921;SDS011;15261;50.356;10.340;2022-11-15T08:03:32;13.27;;;10.90;;
27921;SDS011;15261;50.356;10.340;2022-11-15T08:05:58;11.10;;;9.10;;
27921;SDS011;15261;50.356;10.340;2022-11-15T08:08:23;17.60;;;9.45;;
27921;SDS011;15261;50.356;10.340;2022-11-15T08:10:49;13.73;;;10.00;;
27921;SDS011;15261;50.356;10.340;2022-11-15T08:13:15;13.82;;;9.55;;
27921;SDS011;15261;50.356;10.340;2022-11-15T08:15:41;10.55;;;8.65;;
27921;SDS011;15261;50.356;10.340;2022-11-15T08:18:15;9.10;;;8.20;;
27921;SDS011;15261;50.356;10.340;2022-11-15T08:20:41;9.65;;;8.73;;
27921;SDS011;15261;50.356;10.340;2022-11-15T08:23:09;12.55;;;8.20;;
27921;SDS011;15261;50.356;10.340;2022-11-15T08:25:36;10.30;;;8.73;;
27921;SDS011;15261;50.356;10.340;2022-11-15T08:28:03;10.23;;;8.48;;
27921;SDS011;15261;50.356;10.340;2022-11-15T08:30:30;10.82;;;8.90;;
27921;SDS011;15261;50.356;10.340;2022-11-15T08:32:59;13.70;;;9.32;;
27921;SDS011;15261;50.356;10.340;2022-11-15T08:35:25;10.88;;;8.70;;
27921;SDS011;15261;50.356;10.340;2022-11-15T08:37:52;11.13;;;8.30;;
27921;SDS011;15261;50.356;10.340;2022-11-15T08:40:18;9.48;;;8.48;;
27921;SDS011;15261;50.356;10.340;2022-11-15T08:42:45;11.48;;;10.25;;
27921;SDS011;15261;50.356;10.340;2022-11-15T08:45:11;13.55;;;12.15;;
27921;SDS011;15261;50.356;10.340;2022-11-15T08:47:37;14.52;;;13.02;;
27921;SDS011;15261;50.356;10.340;2022-11-15T08:50:03;13.25;;;10.50;;
27921;SDS011;15261;50.356;10.340;2022-11-15T08:52:29;14.55;;;11.77;;
27921;SDS011;15261;50.356;10.340;2022-11-15T08:54:54;12.30;;;11.02;;
27921;SDS011;15261;50.356;10.340;2022-11-15T08:57:20;10.55;;;9.55;;
27921;SDS011;15261;50.356;10.340;2022-11-15T08:59:46;10.90;;;9.48;;
27921;SDS011;15261;50.356;10.340;2022-11-15T09:02:12;9.45;;;8.55;;
27921;SDS011;15261;50.356;10.340;2022-11-15T09:04:42;10.82;;;9.68;;
27921;SDS011;15261;50.356;10.340;2022-11-15T09:07:11;10.32;;;9.23;;
27921;SDS011;15261;50.356;10.340;2022-11-15T09:09:38;11.82;;;8.93;;
27921;SDS011;15261;50.356;10.340;2022-11-15T09:12:04;14.07;;;12.68;;
27921;SDS011;15261;50.356;10.340;2022-11-15T09:14:31;14.38;;;10.75;;
27921;SDS011;15261;50.356;10.340;2022-11-15T09:16:57;14.38;;;9.50;;
27921;SDS011;15261;50.356;10.340;2022-11-15T09:19:23;16.98;;;9.00;;
27921;SDS011;15261;50.356;10.340;2022-11-15T09:21:48;11.45;;;8.75;;
27921;SDS011;15261;50.356;10.340;2022-11-15T09:24:14;16.85;;;9.00;;
27921;SDS011;15261;50.356;10.340;2022-11-15T09:26:40;18.50;;;9.15;;
27921;SDS011;15261;50.356;10.340;2022-11-15T09:29:06;12.10;;;8.57;;
27921;SDS011;15261;50.356;10.340;2022-11-15T09:31:31;9.50;;;8.60;;
27921;SDS011;15261;50.356;10.340;2022-11-15T09:33:57;12.18;;;8.02;;
27921;SDS011;15261;50.356;10.340;2022-11-15T09:36:23;10.20;;;8.10;;
27921;SDS011;15261;50.356;10.340;2022-11-15T09:38:48;9.73;;;7.93;;
27921;SDS011;15261;50.356;10.340;2022-11-15T09:49:45;9.90;;;8.25;;
27921;SDS011;15261;50.356;10.340;2022-11-15T09:52:12;8.85;;;8.05;;
27921;SDS011;15261;50.356;10.340;2022-11-15T09:54:49;8.55;;;7.65;;
27921;SDS011;15261;50.356;10.340;2022-11-15T10:00:17;9.80;;;7.90;;
27921;SDS011;15261;50.356;10.340;2022-11-15T10:03:14;8.93;;;7.72;;
27921;SDS011;15261;50.356;10.340;2022-11-15T10:05:44;12.13;;;8.00;;
27921;SDS011;15261;50.356;10.340;2022-11-15T10:11:00;11.90;;;8.15;;
27921;SDS011;15261;50.356;10.340;2022-11-15T10:13:30;9.30;;;8.25;;
27921;SDS011;15261;50.356;10.340;2022-11-15T10:16:04;9.90;;;8.13;;
27921;SDS011;15261;50.356;10.340;2022-11-15T10:18:40;9.52;;;7.97;;
27921;SDS011;15261;50.356;10.340;2022-11-15T10:22:00;10.40;;;8.15;;
27921;SDS011;15261;50.356;10.340;2022-11-15T10:24:43;9.07;;;8.18;;
27921;SDS011;15261;50.356;10.340;2022-11-15T10:27:14;7.78;;;6.68;;
27921;SDS011;15261;50.356;10.340;2022-11-15T10:29:45;12.10;;;7.55;;
27921;SDS011;15261;50.356;10.340;2022-11-15T10:32:16;8.98;;;8.10;;
27921;SDS011;15261;50.356;10.340;2022-11-15T10:34:44;8.73;;;7.28;;
27921;SDS011;15261;50.356;10.340;2022-11-15T10:37:10;8.38;;;6.75;;
27921;SDS011;15261;50.356;10.340;2022-11-15T10:39:36;6.53;;;5.82;;
27921;SDS011;15261;50.356;10.340;2022-11-15T10:42:48;6.70;;;6.10;;
27921;SDS011;15261;50.356;10.340;2022-11-15T10:44:52;9.65;;;5.70;;
27921;SDS011;15261;50.356;10.340;2022-11-15T10:47:26;7.72;;;5.60;;
27921;SDS011;15261;50.356;10.340;2022-11-15T10:49:55;7.35;;;5.57;;
27921;SDS011;15261;50.356;10.340;2022-11-15T10:52:45;12.52;;;5.95;;
27921;SDS011;15261;50.356;10.340;2022-11-15T10:57:47;8.48;;;6.30;;
27921;SDS011;15261;50.356;10.340;2022-11-15T11:05:37;7.03;;;5.97;;
27921;SDS011;15261;50.356;10.340;2022-11-15T11:10:36;9.15;;;6.35;;
27921;SDS011;15261;50.356;10.340;2022-11-15T11:15:46;6.18;;;5.57;;
27921;SDS011;15261;50.356;10.340;2022-11-15T11:18:26;6.43;;;5.63;;
27921;SDS011;15261;50.356;10.340;2022-11-15T11:20:58;6.40;;;5.78;;
27921;SDS011;15261;50.356;10.340;2022-11-15T11:23:39;7.38;;;5.93;;
27921;SDS011;15261;50.356;10.340;2022-11-15T11:32:39;8.38;;;5.43;;
27921;SDS011;15261;50.356;10.340;2022-11-15T11:37:54;5.88;;;5.38;;
27921;SDS011;15261;50.356;10.340;2022-11-15T11:40:37;14.60;;;5.55;;
27921;SDS011;15261;50.356;10.340;2022-11-15T11:43:34;10.10;;;5.80;;
27921;SDS011;15261;50.356;10.340;2022-11-15T11:49:10;9.43;;;6.30;;
27921;SDS011;15261;50.356;10.340;2022-11-15T11:51:44;6.78;;;5.10;;
27921;SDS011;15261;50.356;10.340;2022-11-15T11:54:19;7.45;;;5.50;;
27921;SDS011;15261;50.356;10.340;2022-11-15T11:57:01;6.10;;;5.50;;
27921;SDS011;15261;50.356;10.340;2022-11-15T12:02:19;6.63;;;5.22;;
27921;SDS011;15261;50.356;10.340;2022-11-15T12:04:57;5.75;;;5.25;;
27921;SDS011;15261;50.356;10.340;2022-11-15T12:07:43;5.90;;;5.30;;
27921;SDS011;15261;50.356;10.340;2022-11-15T12:15:39;6.72;;;6.03;;
27921;SDS011;15261;50.356;10.340;2022-11-15T12:18:12;7.22;;;6.28;;
27921;SDS011;15261;50.356;10.340;2022-11-15T12:20:41;7.63;;;6.43;;
27921;SDS011;15261;50.356;10.340;2022-11-15T12:23:19;9.10;;;7.38;;
27921;SDS011;15261;50.356;10.340;2022-11-15T12:25:54;7.45;;;6.75;;
27921;SDS011;15261;50.356;10.340;2022-11-15T12:28:35;7.10;;;6.40;;
27921;SDS011;15261;50.356;10.340;2022-11-15T12:31:11;6.72;;;6.10;;
27921;SDS011;15261;50.356;10.340;2022-11-15T12:33:46;8.15;;;6.70;;
27921;SDS011;15261;50.356;10.340;2022-11-15T12:41:19;8.50;;;7.13;;
27921;SDS011;15261;50.356;10.340;2022-11-15T12:43:47;8.02;;;7.22;;
27921;SDS011;15261;50.356;10.340;2022-11-15T12:46:58;9.07;;;6.85;;
27921;SDS011;15261;50.356;10.340;2022-11-15T13:17:50;5.03;;;4.63;;
27921;SDS011;15261;50.356;10.340;2022-11-15T13:22:50;4.75;;;4.35;;
27921;SDS011;15261;50.356;10.340;2022-11-15T13:25:26;5.28;;;4.38;;
27921;SDS011;15261;50.356;10.340;2022-11-15T13:28:10;4.03;;;3.72;;
27921;SDS011;15261;50.356;10.340;2022-11-15T13:30:39;4.72;;;3.85;;
27921;SDS011;15261;50.356;10.340;2022-11-15T13:33:36;7.72;;;4.53;;
27921;SDS011;15261;50.356;10.340;2022-11-15T13:36:05;5.25;;;4.50;;
27921;SDS011;15261;50.356;10.340;2022-11-15T13:38:37;13.07;;;4.78;;
27921;SDS011;15261;50.356;10.340;2022-11-15T13:41:17;5.57;;;3.95;;
27921;SDS011;15261;50.356;10.340;2022-11-15T13:43:48;6.20;;;4.05;;
27921;SDS011;15261;50.356;10.340;2022-11-15T13:46:23;6.13;;;5.40;;
27921;SDS011;15261;50.356;10.340;2022-11-15T13:48:51;11.55;;;4.35;;
27921;SDS011;15261;50.356;10.340;2022-11-15T13:51:29;8.05;;;5.40;;
27921;SDS011;15261;50.356;10.340;2022-11-15T13:57:00;45.75;;;41.10;;
27921;SDS011;15261;50.356;10.340;2022-11-15T13:59:35;83.93;;;75.10;;
27921;SDS011;15261;50.356;10.340;2022-11-15T14:02:15;49.00;;;44.08;;
27921;SDS011;15261;50.356;10.340;2022-11-15T14:04:50;75.07;;;67.13;;
27921;SDS011;15261;50.356;10.340;2022-11-15T14:07:19;50.67;;;45.58;;
27921;SDS011;15261;50.356;10.340;2022-11-15T14:09:46;32.80;;;28.98;;
27921;SDS011;15261;50.356;10.340;2022-11-15T14:14:50;15.05;;;11.95;;
27921;SDS011;15261;50.356;10.340;2022-11-15T14:17:19;10.70;;;9.70;;
27921;SDS011;15261;50.356;10.340;2022-11-15T14:19:54;11.10;;;10.10;;
27921;SDS011;15261;50.356;10.340;2022-11-15T14:22:21;8.40;;;7.57;;
27921;SDS011;15261;50.356;10.340;2022-11-15T14:25:04;7.00;;;6.32;;
27921;SDS011;15261;50.356;10.340;2022-11-15T14:27:54;8.07;;;5.88;;
27921;SDS011;15261;50.356;10.340;2022-11-15T14:30:35;7.45;;;6.07;;
27921;SDS011;15261;50.356;10.340;2022-11-15T14:33:11;6.47;;;5.85;;
27921;SDS011;15261;50.356;10.340;2022-11-15T14:35:58;7.03;;;6.40;;
27921;SDS011;15261;50.356;10.340;2022-11-15T14:38:30;8.02;;;6.00;;
27921;SDS011;15261;50.356;10.340;2022-11-15T14:40:56;13.85;;;6.13;;
27921;SDS011;15261;50.356;10.340;2022-11-15T14:43:22;13.80;;;6.40;;
27921;SDS011;15261;50.356;10.340;2022-11-15T14:45:48;23.10;;;17.85;;
27921;SDS011;15261;50.356;10.340;2022-11-15T14:48:13;16.92;;;11.07;;
27921;SDS011;15261;50.356;10.340;2022-11-15T14:50:39;22.60;;;9.57;;
27921;SDS011;15261;50.356;10.340;2022-11-15T14:53:05;16.83;;;9.15;;
27921;SDS011;15261;50.356;10.340;2022-11-15T14:55:31;23.52;;;14.88;;
27921;SDS011;15261;50.356;10.340;2022-11-15T14:58:04;19.27;;;13.13;;
27921;SDS011;15261;50.356;10.340;2022-11-15T15:00:33;13.93;;;10.90;;
27921;SDS011;15261;50.356;10.340;2022-11-15T15:03:03;10.65;;;8.18;;
27921;SDS011;15261;50.356;10.340;2022-11-15T15:05:36;15.00;;;9.15;;
27921;SDS011;15261;50.356;10.340;2022-11-15T15:08:04;14.98;;;9.35;;
27921;SDS011;15261;50.356;10.340;2022-11-15T15:10:35;12.77;;;8.15;;
27921;SDS011;15261;50.356;10.340;2022-11-15T15:13:02;9.80;;;7.72;;
27921;SDS011;15261;50.356;10.340;2022-11-15T15:15:33;13.35;;;7.78;;
27921;SDS011;15261;50.356;10.340;2022-11-15T15:18:00;16.05;;;7.50;;
27921;SDS011;15261;50.356;10.340;2022-11-15T15:20:27;10.57;;;7.72;;
27921;SDS011;15261;50.356;10.340;2022-11-15T15:22:53;9.88;;;6.93;;
27921;SDS011;15261;50.356;10.340;2022-11-15T15:25:23;10.90;;;7.45;;
27921;SDS011;15261;50.356;10.340;2022-11-15T15:28:10;15.43;;;6.75;;
27921;SDS011;15261;50.356;10.340;2022-11-15T15:30:36;9.80;;;7.43;;
27921;SDS011;15261;50.356;10.340;2022-11-15T15:33:02;13.88;;;8.02;;
27921;SDS011;15261;50.356;10.340;2022-11-15T15:35:29;15.10;;;8.18;;
27921;SDS011;15261;50.356;10.340;2022-11-15T15:37:56;10.52;;;6.82;;
27921;SDS011;15261;50.356;10.340;2022-11-15T15:40:22;17.05;;;7.32;;
27921;SDS011;15261;50.356;10.340;2022-11-15T15:42:49;13.07;;;7.43;;
27921;SDS011;15261;50.356;10.340;2022-11-15T15:45:15;9.90;;;6.75;;
27921;SDS011;15261;50.356;10.340;2022-11-15T15:47:41;19.42;;;7.18;;
27921;SDS011;15261;50.356;10.340;2022-11-15T15:50:22;12.38;;;7.05;;
27921;SDS011;15261;50.356;10.340;2022-11-15T15:52:56;11.15;;;6.60;;
27921;SDS011;15261;50.356;10.340;2022-11-15T15:55:22;16.75;;;9.85;;
27921;SDS011;15261;50.356;10.340;2022-11-15T15:57:49;15.00;;;10.07;;
27921;SDS011;15261;50.356;10.340;2022-11-15T16:00:15;13.32;;;10.15;;
27921;SDS011;15261;50.356;10.340;2022-11-15T16:02:42;15.30;;;10.00;;
27921;SDS011;15261;50.356;10.340;2022-11-15T16:05:08;15.15;;;10.02;;
27921;SDS011;15261;50.356;10.340;2022-11-15T16:07:34;11.82;;;9.40;;
27921;SDS011;15261;50.356;10.340;2022-11-15T16:10:00;14.27;;;9.23;;
27921;SDS011;15261;50.356;10.340;2022-11-15T16:12:33;9.27;;;7.55;;
27921;SDS011;15261;50.356;10.340;2022-11-15T16:14:59;8.38;;;6.90;;
27921;SDS011;15261;50.356;10.340;2022-11-15T16:17:26;7.63;;;6.65;;
27921;SDS011;15261;50.356;10.340;2022-11-15T16:19:55;7.75;;;6.85;;
27921;SDS011;15261;50.356;10.340;2022-11-15T16:22:21;9.48;;;6.88;;
27921;SDS011;15261;50.356;10.340;2022-11-15T16:24:47;22.35;;;11.95;;
27921;SDS011;15261;50.356;10.340;2022-11-15T16:27:14;35.35;;;22.25;;
27921;SDS011;15261;50.356;10.340;2022-11-15T16:29:44;50.92;;;33.97;;
27921;SDS011;15261;50.356;10.340;2022-11-15T16:32:10;24.02;;;13.07;;
27921;SDS011;15261;50.356;10.340;2022-11-15T16:34:36;18.35;;;9.43;;
27921;SDS011;15261;50.356;10.340;2022-11-15T16:37:02;18.52;;;10.38;;
27921;SDS011;15261;50.356;10.340;2022-11-15T16:39:28;18.75;;;9.25;;
27921;SDS011;15261;50.356;10.340;2022-11-15T16:41:55;13.57;;;9.48;;
27921;SDS011;15261;50.356;10.340;2022-11-15T16:44:21;12.55;;;9.43;;
27921;SDS011;15261;50.356;10.340;2022-11-15T16:46:48;14.57;;;8.52;;
27921;SDS011;15261;50.356;10.340;2022-11-15T16:49:16;19.23;;;10.32;;
27921;SDS011;15261;50.356;10.340;2022-11-15T16:51:46;14.73;;;7.05;;
27921;SDS011;15261;50.356;10.340;2022-11-15T16:54:13;8.65;;;5.85;;